Sakai-Minato, Japan
Current Conditions -  °F | °C
As of 3:00 AM on Tuesday 21 Oct 2014 (Local Time) from RJOH Reporting Station
Light Rain Light Rain  
Wind Chill: 63°   Ceiling: 8000
Heat Index: 63°   Visibility: 6mi
Dew Point: 61°   Wind: 1mph
Humidity: 94%   Direction: NA
Pressure: 30.03"   Gusts: NA
Location:  35.53°N, 133.24°E
Report Text: RJOH 201800Z VRB01KT 9999 -RA FEW050 BKN080 OVC120 17/16 Q1017
Loading
Personal Weather Stations






























Interactive Weather Map
Tropical Storm Tracking
New forecast layout! Learn more

10-Day Weather Forecast

Advertisements
Track Severe Weather on mobile